Time;durP1;ratioP1;P1;durP2;ratioP2;P2;SDS_P1;SDS_P2;PMS_P1;PMS_P2;Temp;Humidity;BMP_temperature;BMP_pressure;BME280_temperature;BME280_humidity;BME280_pressure;Samples;Min_cycle;Max_cycle;Signal;HPM_P1;HPM_P2
2022/01/10 00:00:48;;;;;;;44.33;13.20;;;2.50;99.90;;;;;;4988902;28;39591;-75
2022/01/10 00:03:14;;;;;;;32.83;12.30;;;2.60;99.90;;;;;;5019339;28;39759;-76
2022/01/10 00:05:41;;;;;;;35.10;13.07;;;2.60;99.90;;;;;;5030215;28;37616;-76
2022/01/10 00:08:07;;;;;;;22.37;11.53;;;2.60;99.90;;;;;;4996874;28;39949;-75
2022/01/10 00:10:34;;;;;;;39.30;14.37;;;2.60;99.90;;;;;;5017650;28;40004;-75
2022/01/10 00:13:01;;;;;;;32.03;13.30;;;2.70;99.90;;;;;;5013033;28;38797;-75
2022/01/10 00:15:27;;;;;;;31.17;15.50;;;2.70;99.90;;;;;;5036205;28;39830;-75
2022/01/10 00:17:53;;;;;;;36.33;15.50;;;2.80;99.90;;;;;;5023013;28;38314;-75
2022/01/10 00:20:20;;;;;;;37.70;15.73;;;2.80;99.90;;;;;;5030242;28;39201;-75
2022/01/10 00:22:49;;;;;;;35.93;15.03;;;2.80;99.90;;;;;;5010586;28;38357;-75
2022/01/10 00:25:18;;;;;;;37.33;15.80;;;2.80;99.90;;;;;;5011772;28;38792;-75
2022/01/10 00:27:46;;;;;;;38.63;14.40;;;2.70;99.90;;;;;;4986200;28;39257;-75
2022/01/10 00:30:13;;;;;;;35.57;15.23;;;2.60;99.90;;;;;;4994733;28;39578;-75
2022/01/10 00:32:41;;;;;;;32.10;14.90;;;2.60;99.90;;;;;;5028285;28;38977;-75
2022/01/10 00:35:08;;;;;;;29.40;12.93;;;2.50;99.90;;;;;;4994958;28;41771;-74
2022/01/10 00:37:34;;;;;;;28.80;13.53;;;2.40;99.90;;;;;;5009497;28;37302;-75
2022/01/10 00:40:04;;;;;;;26.83;11.83;;;2.20;99.90;;;;;;5004265;28;38648;-75
2022/01/10 00:42:32;;;;;;;33.07;15.10;;;2.00;99.90;;;;;;5014067;28;47455;-75
2022/01/10 00:45:02;;;;;;;36.87;15.53;;;1.90;99.90;;;;;;5032917;28;39797;-74
2022/01/10 00:47:28;;;;;;;23.87;11.33;;;1.80;99.90;;;;;;5018698;28;48688;-75
2022/01/10 00:49:55;;;;;;;37.27;15.37;;;1.70;99.90;;;;;;5013528;28;39041;-75
2022/01/10 00:52:21;;;;;;;28.83;14.80;;;1.70;99.90;;;;;;4999786;28;38948;-75
2022/01/10 00:54:48;;;;;;;35.20;16.87;;;1.70;99.90;;;;;;5033687;28;39355;-75
2022/01/10 00:57:14;;;;;;;25.30;13.73;;;1.80;99.90;;;;;;5035828;28;38159;-75
2022/01/10 00:59:40;;;;;;;22.73;12.37;;;1.90;99.90;;;;;;5017966;28;38811;-75
2022/01/10 01:02:06;;;;;;;34.50;15.33;;;2.00;99.90;;;;;;4999858;28;38653;-75
2022/01/10 01:04:33;;;;;;;30.00;14.83;;;2.10;99.90;;;;;;5002281;28;39157;-75
2022/01/10 01:06:59;;;;;;;55.40;23.27;;;2.20;99.90;;;;;;5020695;28;38173;-75
2022/01/10 01:09:29;;;;;;;45.83;20.67;;;2.30;99.90;;;;;;5000527;28;39719;-75
2022/01/10 01:20:08;;;;;;;47.77;21.10;;;2.70;99.90;;;;;;5020927;28;39476;-74
2022/01/10 01:25:19;;;;;;;36.30;18.50;;;2.70;99.90;;;;;;5017008;28;40109;-75
2022/01/10 01:27:45;;;;;;;50.93;22.43;;;2.70;99.90;;;;;;5020536;28;37964;-75
2022/01/10 01:30:11;;;;;;;53.53;25.80;;;2.90;99.90;;;;;;5020599;28;38759;-75
2022/01/10 01:32:38;;;;;;;38.93;21.17;;;3.10;99.90;;;;;;5022656;28;39377;-74
2022/01/10 01:35:07;;;;;;;47.93;24.87;;;3.20;99.90;;;;;;5020994;28;37473;-75
2022/01/10 01:37:35;;;;;;;46.43;25.07;;;3.30;99.90;;;;;;5021288;28;39085;-75
2022/01/10 01:40:03;;;;;;;46.00;22.10;;;3.30;99.90;;;;;;5032109;28;39289;-75
2022/01/10 01:42:34;;;;;;;29.80;16.03;;;3.30;99.90;;;;;;5003128;28;37617;-75
2022/01/10 01:45:01;;;;;;;28.57;16.43;;;3.20;99.90;;;;;;5014341;28;39035;-75
2022/01/10 01:47:27;;;;;;;36.47;17.47;;;3.00;99.90;;;;;;5028549;28;39592;-75
2022/01/10 01:49:53;;;;;;;38.53;20.73;;;3.10;99.90;;;;;;5037233;28;40282;-75
2022/01/10 01:52:19;;;;;;;31.93;18.17;;;3.10;99.90;;;;;;5017008;28;39482;-75
2022/01/10 01:54:45;;;;;;;35.43;19.80;;;3.10;99.90;;;;;;5019001;28;39841;-75
2022/01/10 01:57:11;;;;;;;37.77;19.37;;;3.20;99.90;;;;;;5000839;28;38902;-75
2022/01/10 01:59:38;;;;;;;48.30;22.47;;;3.20;99.90;;;;;;5003063;28;40861;-75
2022/01/10 02:02:04;;;;;;;35.27;19.57;;;3.30;99.90;;;;;;5000680;28;39407;-75
2022/01/10 02:04:30;;;;;;;39.73;20.57;;;3.40;99.90;;;;;;5031446;28;39093;-75
2022/01/10 02:06:56;;;;;;;41.77;20.87;;;3.50;99.90;;;;;;5021029;28;37422;-75
2022/01/10 02:09:22;;;;;;;49.33;23.37;;;3.70;99.90;;;;;;5031440;28;39652;-75
2022/01/10 02:11:49;;;;;;;44.60;23.37;;;3.80;99.90;;;;;;5035297;28;39358;-75
2022/01/10 02:14:15;;;;;;;47.30;25.13;;;3.80;99.90;;;;;;5033114;28;37738;-74
2022/01/10 02:16:44;;;;;;;53.93;27.00;;;3.90;99.90;;;;;;5033038;28;37793;-75
2022/01/10 02:19:11;;;;;;;41.10;25.53;;;3.90;99.90;;;;;;5018943;28;38436;-75
2022/01/10 02:21:38;;;;;;;47.43;26.50;;;3.90;99.90;;;;;;5031062;28;40367;-75
2022/01/10 02:24:05;;;;;;;43.17;26.00;;;3.90;99.90;;;;;;5018592;28;38394;-75
2022/01/10 02:26:31;;;;;;;50.70;28.63;;;3.90;99.90;;;;;;5000804;28;37193;-74
2022/01/10 02:28:58;;;;;;;43.43;25.53;;;4.00;99.90;;;;;;5002626;28;39595;-75
2022/01/10 02:31:24;;;;;;;40.67;25.53;;;3.90;99.90;;;;;;5028482;28;37753;-75
2022/01/10 02:33:56;;;;;;;40.07;24.47;;;3.90;99.90;;;;;;5016217;28;38303;-75
2022/01/10 02:36:26;;;;;;;43.10;24.93;;;3.90;99.90;;;;;;5010156;28;38154;-75
2022/01/10 02:38:56;;;;;;;51.27;27.10;;;3.90;99.90;;;;;;5033611;28;40613;-76
2022/01/10 02:41:25;;;;;;;43.60;24.90;;;3.90;99.90;;;;;;5019828;28;38967;-75
2022/01/10 02:43:52;;;;;;;47.43;22.30;;;3.90;99.90;;;;;;5033837;28;40494;-75
2022/01/10 02:46:19;;;;;;;62.77;35.70;;;3.90;99.90;;;;;;4993790;28;37167;-75
2022/01/10 02:48:45;;;;;;;39.60;23.50;;;3.90;99.90;;;;;;4987706;28;40323;-77
2022/01/10 02:51:12;;;;;;;47.83;27.23;;;3.90;99.90;;;;;;5016630;28;39617;-77
2022/01/10 02:53:38;;;;;;;41.30;22.10;;;3.90;99.90;;;;;;5011642;28;39148;-75
2022/01/10 02:56:04;;;;;;;40.60;22.37;;;3.90;99.90;;;;;;5016265;28;37202;-74
2022/01/10 02:58:30;;;;;;;43.27;24.73;;;3.80;99.90;;;;;;4998893;28;40677;-75
2022/01/10 03:00:56;;;;;;;36.53;22.00;;;3.90;99.90;;;;;;5011285;28;40542;-75
2022/01/10 03:03:26;;;;;;;40.10;24.37;;;3.80;99.90;;;;;;4993826;28;39698;-75
2022/01/10 03:05:53;;;;;;;45.73;25.73;;;3.80;99.90;;;;;;4998830;28;39359;-75
2022/01/10 03:08:19;;;;;;;38.67;23.40;;;3.90;99.90;;;;;;5016989;28;38544;-75
2022/01/10 03:10:45;;;;;;;53.80;28.53;;;3.80;99.90;;;;;;5015708;28;38623;-74
2022/01/10 03:13:11;;;;;;;43.33;25.43;;;3.80;99.90;;;;;;4995546;28;38825;-74
2022/01/10 03:15:37;;;;;;;57.27;30.13;;;3.90;99.90;;;;;;5016643;28;38083;-75
2022/01/10 03:18:03;;;;;;;47.87;30.67;;;3.90;99.90;;;;;;5017458;28;39515;-74
2022/01/10 03:20:29;;;;;;;51.50;29.00;;;3.90;99.90;;;;;;5014502;28;39652;-74
2022/01/10 03:22:55;;;;;;;43.00;26.07;;;3.90;99.90;;;;;;5017949;28;39245;-75
2022/01/10 03:25:21;;;;;;;41.30;23.20;;;3.90;99.90;;;;;;5013486;28;37204;-74
2022/01/10 03:27:48;;;;;;;40.27;25.20;;;3.90;99.90;;;;;;5003180;28;40565;-75
2022/01/10 03:30:15;;;;;;;44.37;26.90;;;3.90;99.90;;;;;;4995934;28;39267;-75
2022/01/10 03:32:42;;;;;;;53.30;29.43;;;3.90;99.90;;;;;;5003409;28;37583;-75
2022/01/10 03:35:10;;;;;;;60.77;36.67;;;3.90;99.90;;;;;;5000104;28;38169;-75
2022/01/10 03:37:36;;;;;;;70.53;40.50;;;3.90;99.90;;;;;;4999042;28;39710;-75
2022/01/10 03:40:04;;;;;;;52.17;26.80;;;3.90;99.90;;;;;;5018109;28;39394;-75
2022/01/10 03:42:30;;;;;;;52.87;34.83;;;3.90;99.90;;;;;;5021059;28;37677;-74
2022/01/10 03:44:56;;;;;;;51.23;29.87;;;4.00;99.90;;;;;;5015069;28;37295;-75
2022/01/10 03:47:23;;;;;;;43.57;24.97;;;4.00;99.90;;;;;;4995923;28;39677;-75
2022/01/10 03:49:49;;;;;;;47.63;26.57;;;3.90;99.90;;;;;;5026697;28;37547;-74
2022/01/10 03:52:15;;;;;;;48.30;27.07;;;3.90;99.90;;;;;;5028713;28;38848;-74
2022/01/10 03:54:42;;;;;;;39.17;24.77;;;4.00;99.90;;;;;;5016267;28;37745;-75
2022/01/10 03:57:08;;;;;;;43.40;25.83;;;4.10;99.90;;;;;;4997970;28;40547;-76
2022/01/10 03:59:34;;;;;;;47.70;29.83;;;4.00;99.90;;;;;;4994511;28;39455;-76
2022/01/10 04:02:00;;;;;;;62.27;38.23;;;4.10;99.90;;;;;;5015191;28;38603;-76
2022/01/10 04:04:26;;;;;;;45.93;29.83;;;4.10;99.90;;;;;;5028073;28;38826;-76
2022/01/10 04:06:53;;;;;;;46.80;28.67;;;4.10;99.90;;;;;;5018293;28;38909;-76
2022/01/10 04:09:21;;;;;;;58.00;29.00;;;4.10;99.90;;;;;;5016391;28;39001;-76
2022/01/10 04:11:48;;;;;;;37.77;26.40;;;4.10;99.90;;;;;;5013009;28;39099;-76
2022/01/10 04:14:14;;;;;;;58.03;33.30;;;4.10;99.90;;;;;;5014737;28;37463;-76
2022/01/10 04:16:40;;;;;;;41.53;26.23;;;4.10;99.90;;;;;;5031785;28;39265;-76
2022/01/10 04:19:07;;;;;;;43.37;27.90;;;4.10;99.90;;;;;;5000704;28;39704;-76
2022/01/10 04:21:33;;;;;;;52.33;31.80;;;4.10;99.90;;;;;;4990422;28;40157;-76
2022/01/10 04:23:59;;;;;;;81.53;43.40;;;4.10;99.90;;;;;;5009410;28;37324;-76
2022/01/10 04:26:25;;;;;;;52.90;31.47;;;4.20;99.90;;;;;;5000308;28;38738;-76
2022/01/10 04:28:51;;;;;;;46.10;28.57;;;4.20;99.90;;;;;;5014740;28;39034;-76
2022/01/10 04:31:17;;;;;;;67.07;40.33;;;4.20;99.90;;;;;;5031468;28;38959;-76
2022/01/10 04:33:44;;;;;;;70.47;39.87;;;4.20;99.90;;;;;;5004251;28;37582;-76
2022/01/10 04:36:10;;;;;;;53.20;36.13;;;4.20;99.90;;;;;;5014857;28;38681;-76
2022/01/10 04:38:36;;;;;;;48.27;29.53;;;4.20;99.90;;;;;;5031330;28;39111;-76
2022/01/10 04:41:04;;;;;;;61.57;37.50;;;4.20;99.90;;;;;;5013773;28;38578;-76
2022/01/10 04:43:30;;;;;;;65.33;41.57;;;4.20;99.90;;;;;;5012850;28;38322;-76
2022/01/10 04:45:56;;;;;;;68.17;41.10;;;4.20;99.90;;;;;;5034250;28;39387;-76
2022/01/10 04:48:23;;;;;;;76.57;43.63;;;4.20;99.90;;;;;;5016438;28;38449;-76
2022/01/10 04:53:17;;;;;;;67.17;40.30;;;4.30;99.90;;;;;;5011030;28;37674;-76
2022/01/10 04:55:43;;;;;;;57.73;35.83;;;4.20;99.90;;;;;;5012639;28;39821;-76
2022/01/10 04:58:10;;;;;;;40.53;27.70;;;4.20;99.90;;;;;;5012230;28;38804;-76
2022/01/10 05:00:36;;;;;;;41.37;30.27;;;4.20;99.90;;;;;;5000381;28;38754;-76
2022/01/10 05:03:02;;;;;;;55.40;33.50;;;4.20;99.90;;;;;;5032440;28;37947;-75
2022/01/10 05:05:28;;;;;;;61.97;40.57;;;4.20;99.90;;;;;;5017497;28;48828;-76
2022/01/10 05:07:54;;;;;;;66.10;42.03;;;4.20;99.90;;;;;;5027425;28;40098;-76
2022/01/10 05:10:20;;;;;;;61.77;39.43;;;4.20;99.90;;;;;;5016190;28;39468;-76
2022/01/10 05:12:46;;;;;;;47.77;29.40;;;4.20;99.90;;;;;;5030596;28;37129;-76
2022/01/10 05:15:13;;;;;;;51.83;34.07;;;4.20;99.90;;;;;;5028077;28;40605;-76
2022/01/10 05:17:39;;;;;;;43.13;29.60;;;4.20;99.90;;;;;;4994703;28;39656;-76
2022/01/10 05:20:06;;;;;;;43.33;26.10;;;4.20;99.90;;;;;;5014668;28;40026;-76
2022/01/10 05:22:33;;;;;;;42.63;25.53;;;4.20;99.90;;;;;;4995947;28;39326;-76
2022/01/10 05:24:59;;;;;;;53.57;31.53;;;4.20;99.90;;;;;;5012124;28;38626;-76
2022/01/10 05:27:25;;;;;;;40.47;27.23;;;4.20;99.90;;;;;;4994504;28;39012;-76
2022/01/10 05:29:51;;;;;;;49.13;30.33;;;4.30;99.90;;;;;;5011665;28;37615;-76
2022/01/10 05:32:17;;;;;;;56.37;30.43;;;4.30;99.90;;;;;;5010741;28;37438;-76
2022/01/10 05:34:44;;;;;;;62.87;36.23;;;4.30;99.90;;;;;;5027441;28;39814;-76
2022/01/10 05:37:10;;;;;;;55.50;32.77;;;4.30;99.90;;;;;;5027290;28;39036;-76
2022/01/10 05:39:36;;;;;;;57.83;31.70;;;4.40;99.90;;;;;;5013441;28;39454;-74
2022/01/10 05:42:03;;;;;;;53.03;32.17;;;4.40;99.90;;;;;;5018698;28;38394;-75
2022/01/10 05:44:29;;;;;;;54.97;33.13;;;4.40;99.90;;;;;;5018953;28;39845;-74
2022/01/10 05:46:55;;;;;;;53.87;33.53;;;4.40;99.90;;;;;;5010830;28;39566;-76
2022/01/10 05:49:26;;;;;;;64.40;36.50;;;4.40;99.90;;;;;;5024597;28;38814;-76
2022/01/10 05:51:53;;;;;;;66.43;38.37;;;4.40;99.90;;;;;;5034740;28;37956;-76
2022/01/10 05:54:19;;;;;;;46.80;30.73;;;4.40;99.90;;;;;;5025171;28;39473;-77
2022/01/10 05:56:45;;;;;;;40.43;29.17;;;4.40;99.90;;;;;;4999054;28;39445;-75
2022/01/10 05:59:11;;;;;;;47.57;26.43;;;4.40;99.90;;;;;;5032906;28;39604;-77
2022/01/10 06:01:37;;;;;;;39.07;25.03;;;4.40;99.90;;;;;;4998303;28;39143;-75
2022/01/10 06:04:03;;;;;;;43.30;26.20;;;4.40;99.90;;;;;;5031159;28;39750;-75
2022/01/10 06:06:29;;;;;;;44.27;28.93;;;4.40;99.90;;;;;;4999151;28;39263;-75
2022/01/10 06:08:55;;;;;;;49.97;29.07;;;4.40;99.90;;;;;;4997545;28;40316;-74
2022/01/10 06:11:21;;;;;;;60.50;33.50;;;4.30;99.90;;;;;;5016162;28;41146;-75
2022/01/10 06:13:47;;;;;;;60.87;37.77;;;4.40;99.90;;;;;;5018823;28;38912;-75
2022/01/10 06:16:15;;;;;;;54.53;33.73;;;4.40;99.90;;;;;;5014043;28;39783;-75
2022/01/10 06:18:41;;;;;;;52.67;33.17;;;4.40;99.90;;;;;;4992553;28;38558;-74
2022/01/10 06:21:08;;;;;;;60.73;33.17;;;4.40;99.90;;;;;;5015916;28;36332;-75
2022/01/10 06:23:34;;;;;;;53.23;30.23;;;4.40;99.90;;;;;;5043894;28;39767;-76
2022/01/10 06:26:00;;;;;;;52.43;32.07;;;4.40;99.90;;;;;;5000969;28;38902;-76
2022/01/10 06:28:26;;;;;;;41.13;26.70;;;4.40;99.90;;;;;;4998456;28;38909;-76
2022/01/10 06:30:52;;;;;;;52.33;33.27;;;4.40;99.90;;;;;;5014038;28;37479;-75
2022/01/10 06:33:18;;;;;;;46.40;28.27;;;4.40;99.90;;;;;;5018515;28;38800;-75
2022/01/10 06:35:44;;;;;;;62.87;35.80;;;4.40;99.90;;;;;;5011345;28;38234;-75
2022/01/10 06:38:10;;;;;;;55.23;33.13;;;4.40;99.90;;;;;;5014088;28;38470;-74
2022/01/10 06:40:36;;;;;;;67.10;40.47;;;4.40;99.90;;;;;;5017791;28;37202;-75
2022/01/10 06:43:04;;;;;;;53.53;31.13;;;4.40;99.90;;;;;;5017476;28;39419;-75
2022/01/10 06:45:30;;;;;;;46.53;28.87;;;4.40;99.90;;;;;;5033888;28;40672;-74
2022/01/10 06:47:57;;;;;;;63.00;38.80;;;4.50;99.90;;;;;;5004279;28;39252;-74
2022/01/10 06:50:23;;;;;;;53.87;33.57;;;4.40;99.90;;;;;;5012052;28;39189;-75
2022/01/10 06:52:51;;;;;;;76.47;40.63;;;4.50;99.90;;;;;;5019840;28;37696;-76
2022/01/10 06:55:17;;;;;;;52.17;32.77;;;4.50;99.90;;;;;;4997576;28;39408;-75
2022/01/10 06:57:43;;;;;;;54.67;29.40;;;4.50;99.90;;;;;;5035625;28;39437;-75
2022/01/10 07:00:10;;;;;;;52.73;32.00;;;4.50;99.90;;;;;;5014536;28;38368;-76
2022/01/10 07:02:36;;;;;;;43.63;25.83;;;4.50;99.90;;;;;;5017950;28;39546;-75
2022/01/10 07:05:02;;;;;;;51.20;30.47;;;4.60;99.90;;;;;;5014841;28;39452;-77
2022/01/10 07:07:28;;;;;;;48.23;28.37;;;4.60;99.90;;;;;;5022681;28;38739;-75
2022/01/10 07:09:55;;;;;;;46.43;29.57;;;4.60;99.90;;;;;;5009908;28;37854;-77
2022/01/10 07:12:21;;;;;;;53.83;31.10;;;4.50;99.90;;;;;;5012092;28;38568;-74
2022/01/10 07:14:47;;;;;;;65.67;33.87;;;4.60;99.90;;;;;;5017546;28;39743;-75
2022/01/10 07:17:13;;;;;;;50.03;28.50;;;4.60;99.90;;;;;;5008843;28;38237;-77
2022/01/10 07:19:39;;;;;;;49.40;31.43;;;4.60;99.90;;;;;;5017697;28;37354;-76
2022/01/10 07:22:05;;;;;;;52.10;30.37;;;4.60;99.90;;;;;;5000420;28;39908;-76
2022/01/10 07:24:32;;;;;;;45.23;28.37;;;4.60;99.90;;;;;;5032093;28;37961;-76
2022/01/10 07:26:58;;;;;;;60.87;31.57;;;4.60;99.90;;;;;;5019076;28;38534;-78
2022/01/10 07:29:25;;;;;;;45.10;27.53;;;4.70;99.90;;;;;;5014494;28;38064;-77
2022/01/10 07:31:51;;;;;;;53.43;29.47;;;4.60;99.90;;;;;;5016182;28;39666;-76
2022/01/10 07:34:17;;;;;;;59.90;31.47;;;4.60;99.90;;;;;;5031565;28;40827;-76
2022/01/10 07:36:43;;;;;;;47.57;29.00;;;4.70;99.90;;;;;;5029178;28;38837;-75
2022/01/10 07:39:10;;;;;;;43.70;26.77;;;4.70;99.90;;;;;;5040550;28;37452;-76
2022/01/10 07:41:37;;;;;;;46.40;27.87;;;4.70;99.90;;;;;;5002640;28;37701;-75
2022/01/10 07:44:03;;;;;;;50.50;29.83;;;4.70;99.90;;;;;;5021621;28;38638;-75
2022/01/10 07:46:29;;;;;;;49.77;27.67;;;4.70;99.90;;;;;;5004102;28;37435;-76
2022/01/10 07:48:55;;;;;;;45.47;27.90;;;4.70;99.90;;;;;;5009970;28;36271;-76
2022/01/10 07:51:23;;;;;;;40.80;25.53;;;4.70;99.90;;;;;;5025008;28;39000;-75
2022/01/10 07:53:50;;;;;;;56.77;30.63;;;4.70;99.90;;;;;;5022274;28;40129;-77
2022/01/10 07:56:16;;;;;;;52.03;29.47;;;4.70;99.90;;;;;;5019298;28;38135;-75
2022/01/10 07:58:42;;;;;;;46.10;25.70;;;4.70;99.90;;;;;;5016016;28;37141;-76
2022/01/10 08:01:08;;;;;;;53.57;33.07;;;4.70;99.90;;;;;;5009245;28;39942;-75
2022/01/10 08:03:34;;;;;;;42.90;24.80;;;4.70;99.90;;;;;;5020569;28;38390;-76
2022/01/10 08:06:00;;;;;;;44.37;23.83;;;4.80;99.90;;;;;;5024052;28;38177;-76
2022/01/10 08:08:27;;;;;;;44.53;29.70;;;4.80;99.90;;;;;;5025245;28;48195;-76
2022/01/10 08:10:53;;;;;;;47.33;27.17;;;4.70;99.90;;;;;;5022420;28;38476;-76
2022/01/10 08:13:19;;;;;;;49.83;28.90;;;4.70;99.90;;;;;;5018844;28;39029;-77
2022/01/10 08:15:45;;;;;;;47.03;24.83;;;4.70;99.90;;;;;;5040742;28;38279;-77
2022/01/10 08:18:11;;;;;;;43.17;23.50;;;4.70;99.90;;;;;;5008394;28;37064;-76
2022/01/10 08:20:37;;;;;;;49.50;25.07;;;4.70;99.90;;;;;;5038013;28;38094;-76
2022/01/10 08:23:03;;;;;;;47.83;25.13;;;4.70;99.90;;;;;;5024015;28;39014;-76
2022/01/10 08:25:29;;;;;;;46.27;26.37;;;4.70;99.90;;;;;;5015299;28;39058;-76
2022/01/10 08:27:55;;;;;;;45.20;24.50;;;4.80;99.90;;;;;;5036882;28;37532;-76
2022/01/10 08:30:22;;;;;;;49.97;24.17;;;4.80;99.90;;;;;;5001621;28;37819;-76
2022/01/10 08:32:50;;;;;;;45.17;24.20;;;4.80;99.90;;;;;;5003849;28;38762;-75
2022/01/10 08:35:18;;;;;;;51.43;24.37;;;4.80;99.90;;;;;;5008013;28;38437;-77
2022/01/10 08:37:44;;;;;;;42.43;23.30;;;4.80;99.90;;;;;;5012404;28;37987;-77
2022/01/10 08:40:11;;;;;;;39.73;22.37;;;4.90;99.90;;;;;;5037001;28;37856;-78
2022/01/10 08:42:38;;;;;;;37.87;22.70;;;4.90;99.90;;;;;;5003954;28;37950;-78
2022/01/10 08:45:05;;;;;;;50.03;26.13;;;5.00;99.90;;;;;;4998758;28;37484;-76
2022/01/10 08:47:31;;;;;;;47.83;24.33;;;5.00;99.90;;;;;;5004856;28;37482;-76
2022/01/10 08:49:57;;;;;;;39.23;22.47;;;5.00;99.90;;;;;;4997883;28;37416;-75
2022/01/10 08:52:23;;;;;;;42.20;22.77;;;5.00;99.90;;;;;;5004359;28;38676;-76
2022/01/10 08:54:49;;;;;;;34.50;21.73;;;5.10;99.90;;;;;;5023914;28;39178;-77
2022/01/10 08:57:17;;;;;;;37.50;20.80;;;5.10;99.90;;;;;;5030563;28;37840;-77
2022/01/10 08:59:43;;;;;;;40.93;22.97;;;5.10;99.90;;;;;;5021997;28;39808;-78
2022/01/10 09:02:11;;;;;;;48.93;25.13;;;5.20;99.90;;;;;;5014925;28;39649;-77
2022/01/10 09:04:39;;;;;;;40.17;21.57;;;5.30;99.90;;;;;;5036788;28;38186;-78
2022/01/10 09:07:08;;;;;;;38.50;21.23;;;5.30;99.90;;;;;;5002871;28;37785;-76
2022/01/10 09:09:35;;;;;;;45.77;21.07;;;5.30;99.90;;;;;;5016687;28;38909;-76
2022/01/10 09:12:01;;;;;;;35.13;20.33;;;5.30;99.90;;;;;;5018866;28;38334;-75
2022/01/10 09:14:27;;;;;;;34.33;19.37;;;5.30;99.90;;;;;;5021579;28;49449;-76
2022/01/10 09:16:53;;;;;;;41.97;21.70;;;5.30;99.90;;;;;;5019303;28;37549;-75
2022/01/10 09:19:19;;;;;;;39.17;19.10;;;5.40;99.90;;;;;;5001691;28;37578;-76
2022/01/10 09:21:47;;;;;;;38.20;18.00;;;5.40;99.90;;;;;;5014633;28;38843;-77
2022/01/10 09:24:14;;;;;;;41.77;20.47;;;5.50;99.90;;;;;;5036156;28;38038;-78
2022/01/10 09:26:43;;;;;;;42.33;20.23;;;5.50;99.90;;;;;;5003098;28;38194;-75
2022/01/10 09:29:09;;;;;;;41.10;18.77;;;5.50;99.90;;;;;;5011109;28;38681;-76
2022/01/10 09:31:35;;;;;;;35.03;17.33;;;5.50;99.90;;;;;;5000524;28;39496;-76
2022/01/10 09:34:02;;;;;;;39.53;18.67;;;5.50;99.90;;;;;;5001281;28;38509;-76
2022/01/10 09:36:31;;;;;;;38.27;17.70;;;5.60;99.90;;;;;;5004924;28;36296;-76
2022/01/10 09:38:57;;;;;;;39.13;18.60;;;5.60;99.90;;;;;;4995137;28;40021;-77
2022/01/10 09:41:25;;;;;;;42.10;17.43;;;5.60;99.90;;;;;;5024453;28;38465;-76
2022/01/10 09:43:59;;;;;;;36.40;18.30;;;5.60;99.90;;;;;;5009450;28;39240;-76
2022/01/10 09:46:27;;;;;;;32.83;17.33;;;5.70;99.90;;;;;;5024908;28;38249;-76
2022/01/10 09:48:53;;;;;;;41.40;17.30;;;5.70;99.90;;;;;;5019311;28;38956;-76
2022/01/10 09:51:22;;;;;;;39.13;18.33;;;5.80;99.90;;;;;;5018160;28;38917;-78
2022/01/10 09:53:49;;;;;;;39.33;16.00;;;5.80;99.90;;;;;;5016850;28;39379;-78
2022/01/10 09:56:15;;;;;;;37.70;16.67;;;5.80;99.90;;;;;;5007599;28;39052;-76
2022/01/10 09:58:42;;;;;;;38.20;15.50;;;5.90;99.90;;;;;;5017499;28;38644;-77
2022/01/10 10:01:12;;;;;;;29.07;15.23;;;5.90;99.90;;;;;;5036080;28;40225;-77
2022/01/10 10:03:38;;;;;;;35.70;16.13;;;6.00;99.90;;;;;;5024096;28;39176;-77
2022/01/10 10:06:05;;;;;;;32.07;14.50;;;6.00;99.90;;;;;;5038754;28;38378;-77
2022/01/10 10:08:31;;;;;;;40.50;15.73;;;6.10;99.90;;;;;;5018241;28;39216;-77
2022/01/10 10:10:59;;;;;;;32.47;14.17;;;6.10;99.90;;;;;;5000578;28;38925;-74
2022/01/10 10:13:25;;;;;;;34.63;14.37;;;6.10;99.90;;;;;;5003435;28;38504;-75
2022/01/10 10:15:55;;;;;;;35.40;14.60;;;6.30;99.90;;;;;;5022965;28;20117;-77
2022/01/10 10:18:21;;;;;;;27.10;14.80;;;6.30;99.90;;;;;;5028885;28;39012;-77
2022/01/10 10:20:47;;;;;;;31.00;16.13;;;6.30;99.90;;;;;;5041701;28;38584;-75
2022/01/10 10:23:16;;;;;;;31.10;16.37;;;6.40;99.90;;;;;;5025115;28;38979;-78
2022/01/10 10:25:53;;;;;;;25.10;14.67;;;6.50;99.90;;;;;;5043207;28;38355;-78
2022/01/10 10:28:21;;;;;;;39.93;15.77;;;6.50;99.90;;;;;;5043641;28;39739;-77
2022/01/10 10:30:48;;;;;;;27.37;14.77;;;6.50;99.90;;;;;;5000901;28;38629;-77
2022/01/10 10:33:20;;;;;;;30.40;13.67;;;6.60;99.90;;;;;;5028164;28;39555;-78
2022/01/10 10:35:56;;;;;;;39.33;16.05;;;6.70;99.90;;;;;;5007756;28;37192;-78
2022/01/10 10:38:25;;;;;;;27.93;12.63;;;6.70;99.90;;;;;;5010106;28;40503;-78
2022/01/10 10:40:51;;;;;;;26.23;13.20;;;6.90;99.90;;;;;;5006885;28;40577;-77
2022/01/10 10:43:18;;;;;;;29.00;13.33;;;6.80;99.90;;;;;;5031501;28;39706;-78
2022/01/10 10:45:48;;;;;;;26.57;12.37;;;6.90;99.90;;;;;;5020319;28;37439;-78
2022/01/10 10:48:16;;;;;;;25.97;12.70;;;6.90;99.90;;;;;;5039413;28;39710;-77
2022/01/10 10:50:45;;;;;;;33.30;14.30;;;6.80;99.90;;;;;;5021956;28;38786;-78
2022/01/10 10:53:14;;;;;;;26.03;13.37;;;6.90;99.90;;;;;;5004204;28;39387;-78
2022/01/10 10:55:42;;;;;;;30.97;13.13;;;6.80;99.90;;;;;;5023102;28;37479;-77
2022/01/10 10:58:10;;;;;;;39.63;13.97;;;6.90;99.90;;;;;;5005390;28;40153;-77
2022/01/10 11:00:37;;;;;;;24.07;12.07;;;7.00;99.90;;;;;;4996152;28;39251;-77
2022/01/10 11:03:04;;;;;;;31.90;14.50;;;7.10;99.90;;;;;;5023411;28;37673;-77
2022/01/10 11:05:30;;;;;;;29.57;14.37;;;7.10;99.90;;;;;;5015499;28;37310;-77
2022/01/10 11:07:57;;;;;;;26.33;12.60;;;6.90;99.90;;;;;;5021765;28;39421;-78
2022/01/10 11:10:24;;;;;;;32.20;12.80;;;6.90;99.90;;;;;;5021428;28;39320;-77
2022/01/10 11:12:55;;;;;;;30.00;13.43;;;6.90;99.90;;;;;;5036848;28;39103;-77
2022/01/10 11:15:25;;;;;;;27.30;12.60;;;7.00;99.90;;;;;;5005069;28;39554;-78
2022/01/10 11:18:01;;;;;;;29.80;12.87;;;7.10;99.90;;;;;;5022443;28;38826;-78
2022/01/10 11:20:28;;;;;;;27.03;12.00;;;7.10;99.90;;;;;;5036838;28;40162;-77
2022/01/10 11:22:58;;;;;;;22.33;11.93;;;7.10;99.90;;;;;;5012574;28;38431;-77
2022/01/10 11:25:32;;;;;;;23.83;11.47;;;7.20;99.90;;;;;;5003363;28;39900;-77
2022/01/10 11:28:06;;;;;;;24.57;10.93;;;7.30;99.90;;;;;;5017782;28;39832;-77
2022/01/10 11:30:36;;;;;;;21.70;11.20;;;7.30;99.90;;;;;;5000617;28;47229;-78
2022/01/10 11:33:09;;;;;;;25.30;11.63;;;7.30;99.90;;;;;;5040340;28;37516;-78
2022/01/10 11:35:38;;;;;;;25.37;11.50;;;7.20;99.90;;;;;;5017383;28;48560;-78
2022/01/10 11:38:33;;;;;;;30.37;12.10;;;7.20;99.90;;;;;;4995445;28;39805;-78
2022/01/10 11:41:12;;;;;;;25.07;10.83;;;7.20;99.90;;;;;;5032286;28;38811;-77
2022/01/10 11:43:46;;;;;;;27.63;11.13;;;7.20;99.90;;;;;;5020455;28;46983;-77
2022/01/10 11:46:33;;;;;;;26.90;11.17;;;7.30;99.90;;;;;;5028291;28;38480;-78
2022/01/10 11:49:08;;;;;;;29.13;13.27;;;7.30;99.90;;;;;;5037463;28;38333;-77
2022/01/10 11:51:50;;;;;;;22.50;11.33;;;7.20;99.90;;;;;;5038951;28;48283;-77
2022/01/10 11:54:28;;;;;;;27.60;13.63;;;7.30;99.90;;;;;;5035792;28;38344;-77
2022/01/10 11:56:56;;;;;;;25.93;13.00;;;7.20;99.90;;;;;;5018198;28;37423;-77
2022/01/10 11:59:28;;;;;;;27.17;11.27;;;7.10;99.90;;;;;;5002213;28;40762;-77
2022/01/10 12:02:12;;;;;;;26.42;12.35;;;7.20;99.90;;;;;;5017141;28;38983;-77
2022/01/10 12:04:43;;;;;;;28.47;12.60;;;7.20;99.90;;;;;;5018204;28;48391;-78
2022/01/10 12:07:13;;;;;;;35.33;14.60;;;7.10;99.90;;;;;;5012147;28;38281;-77
2022/01/10 12:09:39;;;;;;;30.00;13.50;;;7.10;99.90;;;;;;5034691;28;38771;-77
2022/01/10 12:12:11;;;;;;;27.63;13.77;;;7.20;99.90;;;;;;5010320;28;38788;-78
2022/01/10 12:14:38;;;;;;;28.67;11.93;;;7.20;99.90;;;;;;5007718;28;38917;-77
2022/01/10 12:17:05;;;;;;;25.47;12.67;;;7.20;99.90;;;;;;5016953;28;37419;-77
2022/01/10 12:19:31;;;;;;;29.53;12.40;;;7.30;99.90;;;;;;5005230;28;39295;-78
2022/01/10 12:21:57;;;;;;;31.27;12.53;;;7.30;99.90;;;;;;5021412;28;38718;-77
2022/01/10 12:24:24;;;;;;;33.40;13.03;;;7.30;99.90;;;;;;5026527;28;38544;-77
2022/01/10 12:26:50;;;;;;;32.57;12.77;;;7.30;99.90;;;;;;5023115;28;37763;-77
2022/01/10 12:29:16;;;;;;;25.27;12.47;;;7.40;99.90;;;;;;5028247;28;39014;-77
2022/01/10 12:31:45;;;;;;;23.27;11.77;;;7.50;99.90;;;;;;5051260;28;40748;-77
2022/01/10 12:34:13;;;;;;;27.23;11.90;;;7.50;99.90;;;;;;5007180;28;38289;-77
2022/01/10 12:36:41;;;;;;;27.17;11.67;;;7.60;99.90;;;;;;5006849;28;37130;-77
2022/01/10 12:39:11;;;;;;;25.80;12.33;;;7.70;99.90;;;;;;5021079;28;39824;-77
2022/01/10 12:41:38;;;;;;;27.90;13.30;;;7.80;99.90;;;;;;5009492;28;39624;-77
2022/01/10 12:44:05;;;;;;;26.03;12.13;;;7.80;99.90;;;;;;4999339;28;37714;-77
2022/01/10 12:46:33;;;;;;;32.37;12.17;;;8.00;99.90;;;;;;5006325;28;36433;-77
2022/01/10 12:49:09;;;;;;;32.40;13.17;;;7.90;99.90;;;;;;5003095;28;37710;-77